EPKK/KRK METAR and TAF weather

Enter ICAO airport designator
Station Type Date Time Source
EPKK METAR 2022/05/23 13:30 UTC NOAA

EPKK 231330Z 08007KT 040V120 9999 SCT050 18/05 Q1012


Station Type Date Time Source
EPKK Decoded METAR 2022/05/23 13:30 UTC NOAA

Krakow, Poland (EPKK) 50-05N 019-48E 237M
May 23, 2022 - 09:30 AM EDT / 2022.05.23 1330 UTC
Wind: from the E (080 degrees) at 8 MPH (7 KT) (direction variable):0
Visibility: greater than 7 mile(s):0
Sky conditions: partly cloudy
Temperature: 64 F (18 C)
Dew Point: 41 F (5 C)
Relative Humidity: 42%
Pressure (altimeter): 29.88 in. Hg (1012 hPa)
ob: EPKK 231330Z 08007KT 040V120 9999 SCT050 18/05 Q1012
cycle: 13

Station Type Date Time Source
EPKK TAF 2022/05/23 12:33 UTC NOAA

TAF EPKK 231130Z 2312/2412 07010KT 9999 SCT040 BKN045
BECMG 2407/2410 VRB02KT
TEMPO 2409/2412 4000 -RA BR PROB30
TEMPO 2409/2412 BKN014

Example: see airport list